createdAt,value
2022-10-14T00:01:33.284Z,11.21
2022-10-14T00:06:34.632Z,11.19
2022-10-14T00:11:37.070Z,11.20
2022-10-14T00:16:39.747Z,11.23
2022-10-14T00:21:44.118Z,11.19
2022-10-14T00:26:45.817Z,11.18
2022-10-14T00:31:47.441Z,11.13
2022-10-14T00:36:49.894Z,11.04
2022-10-14T00:41:52.767Z,11.06
2022-10-14T00:46:55.008Z,10.95
2022-10-14T00:52:00.077Z,10.95
2022-10-14T00:57:01.791Z,10.86
2022-10-14T01:02:03.389Z,10.82
2022-10-14T01:07:32.203Z,10.90
2022-10-14T01:14:23.439Z,10.98
2022-10-14T01:20:26.365Z,11.04
2022-10-14T01:27:13.176Z,11.02
2022-10-14T01:32:28.677Z,10.95
2022-10-14T01:37:32.983Z,10.77
2022-10-14T01:42:36.422Z,10.85
2022-10-14T01:47:39.049Z,10.77
2022-10-14T01:52:46.435Z,10.73
2022-10-14T01:57:50.641Z,10.70
2022-10-14T02:02:51.542Z,10.82
2022-10-14T02:08:01.032Z,10.78
2022-10-14T02:18:37.795Z,10.71
2022-10-14T02:23:45.370Z,10.72
2022-10-14T02:28:47.838Z,10.65
2022-10-14T02:33:55.285Z,10.76
2022-10-14T02:39:00.213Z,10.89
2022-10-14T02:44:01.649Z,10.82
2022-10-14T02:49:02.682Z,10.83
2022-10-14T02:54:03.524Z,10.84
2022-10-14T02:59:05.037Z,10.88
2022-10-14T03:04:06.132Z,10.92
2022-10-14T03:09:07.381Z,10.90
2022-10-14T03:14:10.671Z,10.88
2022-10-14T03:19:12.018Z,10.95
2022-10-14T03:24:16.943Z,10.95
2022-10-14T03:29:18.133Z,10.98
2022-10-14T03:34:29.676Z,10.82
2022-10-14T03:39:39.199Z,11.00
2022-10-14T03:44:42.036Z,10.90
2022-10-14T03:49:49.729Z,10.81
2022-10-14T03:54:58.572Z,10.84
2022-10-14T04:00:00.304Z,10.79
2022-10-14T04:05:16.767Z,10.84
2022-10-14T04:10:19.125Z,10.85
2022-10-14T04:15:24.517Z,10.83
2022-10-14T04:20:42.616Z,10.85
2022-10-14T04:25:43.883Z,10.84
2022-10-14T04:30:45.391Z,10.91
2022-10-14T04:36:00.112Z,10.93
2022-10-14T04:41:06.113Z,11.02
2022-10-14T04:46:08.202Z,11.03
2022-10-14T04:51:09.691Z,11.07
2022-10-14T04:56:35.101Z,11.05
2022-10-14T05:01:37.180Z,10.97
2022-10-14T05:06:38.336Z,10.96
2022-10-14T05:11:40.426Z,10.93
2022-10-14T05:16:41.575Z,11.05
2022-10-14T05:21:43.094Z,10.94
2022-10-14T05:26:48.410Z,10.94
2022-10-14T05:31:49.636Z,10.91
2022-10-14T05:37:26.198Z,10.92
2022-10-14T05:42:27.310Z,10.91
2022-10-14T05:47:31.192Z,10.81
2022-10-14T05:52:36.204Z,10.88
2022-10-14T05:57:45.031Z,10.82
2022-10-14T06:02:48.277Z,10.79
2022-10-14T06:07:51.246Z,10.83
2022-10-14T06:12:52.006Z,10.87
2022-10-14T06:17:54.270Z,10.82
2022-10-14T06:22:55.357Z,10.83
2022-10-14T06:28:02.646Z,10.84
2022-10-14T06:33:03.486Z,10.83
2022-10-14T06:38:04.412Z,10.83
2022-10-14T06:43:05.655Z,10.85
2022-10-14T06:48:06.786Z,10.84
2022-10-14T06:53:07.989Z,10.97
2022-10-14T06:58:08.983Z,10.91
2022-10-14T07:03:09.759Z,10.88
2022-10-14T07:08:14.439Z,10.95
2022-10-14T07:13:16.406Z,10.98
2022-10-14T07:18:18.314Z,10.97
2022-10-14T07:23:19.090Z,10.94
2022-10-14T07:28:20.586Z,11.05
2022-10-14T07:33:21.458Z,11.10
2022-10-14T07:38:22.370Z,11.06
2022-10-14T07:43:23.813Z,11.03
2022-10-14T07:48:32.789Z,11.12
2022-10-14T07:53:39.628Z,11.04
2022-10-14T07:58:44.332Z,11.05
2022-10-14T08:03:46.898Z,10.99
2022-10-14T08:08:48.038Z,10.98
2022-10-14T08:13:49.108Z,11.04
2022-10-14T08:18:50.868Z,11.03
2022-10-14T08:23:54.160Z,11.02
2022-10-14T08:28:54.989Z,11.01
2022-10-14T08:33:56.378Z,11.15
2022-10-14T08:38:57.700Z,10.98
2022-10-14T08:45:08.517Z,11.05
2022-10-14T08:51:17.860Z,11.28
2022-10-14T08:56:19.853Z,11.31
2022-10-14T09:01:36.401Z,11.41
2022-10-14T09:06:40.457Z,11.47
2022-10-14T09:11:45.982Z,11.39
2022-10-14T09:16:51.839Z,11.43
2022-10-14T09:21:55.251Z,11.39
2022-10-14T09:27:15.865Z,11.40
2022-10-14T09:32:39.029Z,11.48
2022-10-14T09:37:39.756Z,11.61
2022-10-14T09:43:24.175Z,11.66
2022-10-14T09:48:50.497Z,11.56
2022-10-14T09:54:01.650Z,11.59
2022-10-14T09:59:04.387Z,11.66
2022-10-14T10:06:16.063Z,11.69
2022-10-14T10:11:36.636Z,11.79
2022-10-14T10:16:37.571Z,11.86
2022-10-14T10:21:38.363Z,11.82
2022-10-14T10:26:39.109Z,11.82
2022-10-14T10:31:54.677Z,11.85
2022-10-14T10:37:03.626Z,11.82
2022-10-14T10:42:26.382Z,11.89
2022-10-14T10:50:15.934Z,11.88
2022-10-14T10:57:05.740Z,11.99
2022-10-14T11:02:55.169Z,11.98
2022-10-14T11:08:20.998Z,11.97
2022-10-14T11:13:38.226Z,12.02
2022-10-14T11:18:49.767Z,12.05
2022-10-14T11:24:05.706Z,12.01
2022-10-14T11:36:03.909Z,11.96
2022-10-14T11:41:56.974Z,11.95
2022-10-14T11:47:04.467Z,12.07
2022-10-14T11:52:15.873Z,12.09
2022-10-14T11:57:40.989Z,12.01
2022-10-14T12:03:09.466Z,11.96
2022-10-14T12:08:35.988Z,12.02
2022-10-14T12:13:48.180Z,12.00
2022-10-14T12:18:53.504Z,12.16
2022-10-14T12:24:16.492Z,12.17
2022-10-14T12:29:28.385Z,12.26
2022-10-14T12:34:40.537Z,12.23
2022-10-14T12:39:41.623Z,12.26
2022-10-14T12:44:47.798Z,12.15
2022-10-14T12:49:55.318Z,12.22
2022-10-14T12:54:59.401Z,12.20
2022-10-14T13:00:26.933Z,12.34
2022-10-14T13:05:38.069Z,12.43
2022-10-14T13:14:15.303Z,12.33
2022-10-14T13:19:40.477Z,12.33
2022-10-14T13:24:41.392Z,12.32
2022-10-14T13:30:15.689Z,12.42
2022-10-14T13:35:31.584Z,12.44
2022-10-14T13:40:38.505Z,12.45
2022-10-14T13:45:43.442Z,12.56
2022-10-14T13:50:50.018Z,12.78
2022-10-14T13:55:54.491Z,12.77
2022-10-14T14:01:06.388Z,12.78
2022-10-14T14:06:14.180Z,12.76
2022-10-14T14:11:23.954Z,12.73
2022-10-14T14:16:39.383Z,12.83
2022-10-14T14:21:40.323Z,12.82
2022-10-14T14:26:41.123Z,12.81
2022-10-14T14:43:03.003Z,12.88
2022-10-14T14:48:06.890Z,12.99
2022-10-14T14:53:20.054Z,12.91
2022-10-14T14:58:35.308Z,12.98
2022-10-14T15:04:12.873Z,12.94
2022-10-14T15:09:22.184Z,12.95
2022-10-14T15:14:58.871Z,12.97
2022-10-14T15:20:28.634Z,13.09
2022-10-14T15:25:30.858Z,13.09
2022-10-14T15:30:54.869Z,13.22
2022-10-14T15:36:01.148Z,13.14
2022-10-14T15:41:03.835Z,13.10
2022-10-14T15:46:24.091Z,13.10
2022-10-14T15:51:32.746Z,13.12
2022-10-14T15:56:33.613Z,13.10
2022-10-14T16:01:37.457Z,13.09
2022-10-14T16:06:38.437Z,13.22
2022-10-14T16:11:39.621Z,13.12
2022-10-14T16:16:45.121Z,13.18
2022-10-14T16:21:49.060Z,13.07
2022-10-14T16:26:50.591Z,13.13
2022-10-14T16:31:51.641Z,13.19
2022-10-14T16:36:52.832Z,13.10
2022-10-14T16:41:55.013Z,13.28
2022-10-14T16:47:15.842Z,13.20
2022-10-14T16:52:17.910Z,13.03
2022-10-14T16:57:18.650Z,13.09
2022-10-14T17:02:20.666Z,13.05
2022-10-14T17:07:21.821Z,13.06
2022-10-14T17:12:23.270Z,13.07
2022-10-14T17:17:24.918Z,13.04
2022-10-14T17:22:26.092Z,12.92
2022-10-14T17:27:26.968Z,13.05
2022-10-14T17:32:27.777Z,12.97
2022-10-14T17:37:29.970Z,12.90
2022-10-14T17:42:30.713Z,12.97
2022-10-14T17:47:32.615Z,12.96
2022-10-14T17:52:33.522Z,12.98
2022-10-14T17:57:34.327Z,12.89
2022-10-14T18:02:35.160Z,12.89
2022-10-14T18:07:36.937Z,12.95
2022-10-14T18:12:40.000Z,12.87
2022-10-14T18:17:41.223Z,12.91
2022-10-14T18:22:42.071Z,12.93
2022-10-14T18:27:43.376Z,12.79
2022-10-14T18:32:44.146Z,12.82
2022-10-14T18:37:47.365Z,12.75
2022-10-14T18:42:49.533Z,12.82
2022-10-14T18:47:51.426Z,12.71
2022-10-14T18:52:52.183Z,12.62
2022-10-14T18:57:52.942Z,12.64
2022-10-14T19:02:53.685Z,12.57
2022-10-14T19:07:55.962Z,12.46
2022-10-14T19:12:56.791Z,12.34
2022-10-14T19:17:58.455Z,12.31
2022-10-14T19:22:59.180Z,12.30
2022-10-14T19:28:00.027Z,12.27
2022-10-14T19:33:00.922Z,12.34
2022-10-14T19:38:01.874Z,12.23
2022-10-14T19:43:02.700Z,12.27
2022-10-14T19:48:05.223Z,12.23
2022-10-14T19:53:05.983Z,12.31
2022-10-14T19:58:06.769Z,12.29
2022-10-14T20:03:07.566Z,12.21
2022-10-14T20:08:08.517Z,12.19
2022-10-14T20:13:09.338Z,12.20
2022-10-14T20:18:10.329Z,12.19
2022-10-14T20:23:11.092Z,12.19
2022-10-14T20:28:13.265Z,12.21
2022-10-14T20:33:14.275Z,12.16
2022-10-14T20:38:15.116Z,12.23
2022-10-14T20:43:15.994Z,12.16
2022-10-14T20:48:16.735Z,12.20
2022-10-14T20:53:18.057Z,12.18
2022-10-14T20:58:20.208Z,12.21
2022-10-14T21:03:20.953Z,12.20
2022-10-14T21:08:21.806Z,12.13
2022-10-14T21:13:22.666Z,12.08
2022-10-14T21:18:24.004Z,12.13
2022-10-14T21:23:24.816Z,12.09
2022-10-14T21:28:25.911Z,12.09
2022-10-14T21:33:26.755Z,12.08
2022-10-14T21:38:28.877Z,12.04
2022-10-14T21:43:31.895Z,11.97
2022-10-14T21:48:33.301Z,12.05
2022-10-14T21:53:34.404Z,12.05
2022-10-14T21:58:35.729Z,12.04
2022-10-14T22:03:37.621Z,12.07
2022-10-14T22:08:41.669Z,12.01
2022-10-14T22:13:42.589Z,12.05
2022-10-14T22:18:46.198Z,12.06
2022-10-14T22:23:48.570Z,12.07
2022-10-14T22:28:55.975Z,12.11
2022-10-14T22:33:57.192Z,12.13
2022-10-14T22:38:59.891Z,12.12
2022-10-14T22:44:00.983Z,12.22
2022-10-14T22:49:02.402Z,12.15
2022-10-14T22:54:03.541Z,12.10
2022-10-14T22:59:10.350Z,12.09
2022-10-14T23:04:11.604Z,12.08
2022-10-14T23:09:12.445Z,12.12
2022-10-14T23:14:13.169Z,12.13
2022-10-14T23:19:14.338Z,12.12
2022-10-14T23:24:15.095Z,12.20
2022-10-14T23:29:15.885Z,12.16
2022-10-14T23:34:16.691Z,12.15
2022-10-14T23:39:17.545Z,12.19
2022-10-14T23:44:18.274Z,12.22
2022-10-14T23:49:25.992Z,12.27
2022-10-14T23:54:27.695Z,12.20
2022-10-14T23:59:28.482Z,12.23
